createdAt,value
2022-11-06T00:01:37.994Z,100426.16
2022-11-06T00:04:05.163Z,100415.56
2022-11-06T00:06:49.487Z,100422.56
2022-11-06T00:09:21.391Z,100422.56
2022-11-06T00:11:50.285Z,100419.03
2022-11-06T00:14:18.167Z,100413.66
2022-11-06T00:16:47.093Z,100423.44
2022-11-06T00:19:15.872Z,100423.25
2022-11-06T00:21:43.923Z,100427.56
2022-11-06T00:24:13.722Z,100422.47
2022-11-06T00:26:40.828Z,100423.25
2022-11-06T00:29:13.618Z,100425.91
2022-11-06T00:31:40.535Z,100418.81
2022-11-06T00:34:07.796Z,100417.19
2022-11-06T00:36:35.320Z,100421.41
2022-11-06T00:39:02.204Z,100410.78
2022-11-06T00:41:29.101Z,100413.41
2022-11-06T00:43:58.653Z,100403.84
2022-11-06T00:46:26.058Z,100401.31
2022-11-06T00:48:54.126Z,100406.47
2022-11-06T00:51:26.998Z,100411.69
2022-11-06T00:53:55.918Z,100420.44
2022-11-06T00:56:23.451Z,100414.28
2022-11-06T00:58:50.699Z,100414.31
2022-11-06T01:01:17.630Z,100416.19
2022-11-06T01:03:46.324Z,100417.84
2022-11-06T01:06:18.770Z,100419.50
2022-11-06T01:08:46.872Z,100416.13
2022-11-06T01:11:23.661Z,100409.00
2022-11-06T01:13:53.645Z,100402.09
2022-11-06T01:16:20.869Z,100397.72
2022-11-06T01:18:48.272Z,100396.81
2022-11-06T01:21:22.068Z,100399.50
2022-11-06T01:23:56.402Z,100395.00
2022-11-06T01:26:37.224Z,100390.72
2022-11-06T01:29:07.627Z,100393.28
2022-11-06T01:31:35.272Z,100389.13
2022-11-06T01:34:03.229Z,100397.75
2022-11-06T01:36:30.855Z,100395.09
2022-11-06T01:39:00.785Z,100386.34
2022-11-06T01:41:33.450Z,100391.63
2022-11-06T01:44:25.238Z,100389.88
2022-11-06T01:46:52.210Z,100388.94
2022-11-06T01:49:19.139Z,100388.94
2022-11-06T01:51:53.382Z,100382.91
2022-11-06T01:54:21.987Z,100384.59
2022-11-06T01:56:51.484Z,100385.47
2022-11-06T01:59:21.895Z,100388.06
2022-11-06T02:01:49.114Z,100387.13
2022-11-06T02:04:27.188Z,100378.38
2022-11-06T02:06:55.376Z,100395.22
2022-11-06T02:09:22.427Z,100388.06
2022-11-06T02:12:08.382Z,100382.75
2022-11-06T02:15:01.163Z,100386.25
2022-11-06T02:17:49.934Z,100397.75
2022-11-06T02:20:46.733Z,100392.47
2022-11-06T02:23:41.139Z,100400.41
2022-11-06T02:26:20.050Z,100396.88
2022-11-06T02:29:25.790Z,100389.03
2022-11-06T02:31:56.148Z,100373.25
2022-11-06T02:34:27.541Z,100393.50
2022-11-06T02:37:00.383Z,100392.47
2022-11-06T02:39:29.306Z,100391.66
2022-11-06T02:41:58.747Z,100387.16
2022-11-06T02:44:30.329Z,100389.00
2022-11-06T02:47:01.858Z,100386.25
2022-11-06T02:49:40.259Z,100395.00
2022-11-06T02:52:13.635Z,100393.22
2022-11-06T02:54:47.684Z,100392.31
2022-11-06T02:57:18.112Z,100388.06
2022-11-06T02:59:54.901Z,100388.97
2022-11-06T03:02:28.003Z,100386.34
2022-11-06T03:05:04.847Z,100388.91
2022-11-06T03:07:37.757Z,100388.91
2022-11-06T03:10:06.935Z,100395.97
2022-11-06T03:12:56.040Z,100381.09
2022-11-06T03:15:38.512Z,100395.19
2022-11-06T03:18:20.412Z,100390.84
2022-11-06T03:21:08.104Z,100383.03
2022-11-06T03:23:48.568Z,100392.63
2022-11-06T03:26:22.206Z,100391.72
2022-11-06T03:28:57.682Z,100395.28
2022-11-06T03:31:33.584Z,100391.91
2022-11-06T03:34:09.033Z,100386.59
2022-11-06T03:36:42.780Z,100384.81
2022-11-06T03:39:15.542Z,100389.19
2022-11-06T03:41:42.225Z,100390.28
2022-11-06T03:44:12.646Z,100389.41
2022-11-06T03:46:46.719Z,100397.25
2022-11-06T03:49:18.698Z,100392.66
2022-11-06T03:51:45.431Z,100386.69
2022-11-06T03:54:20.389Z,100378.84
2022-11-06T03:56:55.197Z,100383.94
2022-11-06T03:59:27.268Z,100375.19
2022-11-06T04:01:57.124Z,100391.03
2022-11-06T04:04:33.846Z,100387.56
2022-11-06T04:07:06.571Z,100387.59
2022-11-06T04:09:53.993Z,100391.09
2022-11-06T04:12:43.223Z,100378.88
2022-11-06T04:15:15.263Z,100382.44
2022-11-06T04:17:42.252Z,100380.66
2022-11-06T04:20:32.952Z,100369.25
2022-11-06T04:23:31.129Z,100378.13
2022-11-06T04:26:37.334Z,100368.47
2022-11-06T04:29:25.162Z,100378.13
2022-11-06T04:32:14.066Z,100381.78
2022-11-06T04:34:59.936Z,100378.06
2022-11-06T04:37:53.307Z,100381.63
2022-11-06T04:40:51.693Z,100376.34
2022-11-06T04:43:28.697Z,100379.06
2022-11-06T04:45:58.820Z,100385.19
2022-11-06T04:48:26.509Z,100388.59
2022-11-06T04:50:59.549Z,100392.16
2022-11-06T04:53:29.482Z,100392.16
2022-11-06T04:56:01.517Z,100391.19
2022-11-06T04:58:28.420Z,100391.16
2022-11-06T05:00:55.318Z,100398.16
2022-11-06T05:03:22.271Z,100404.22
2022-11-06T05:05:49.323Z,100402.47
2022-11-06T05:08:19.181Z,100398.94
2022-11-06T05:10:47.279Z,100399.78
2022-11-06T05:13:15.337Z,100405.84
2022-11-06T05:15:42.216Z,100412.94
2022-11-06T05:18:09.569Z,100411.09
2022-11-06T05:20:36.617Z,100415.59
2022-11-06T05:23:04.161Z,100421.69
2022-11-06T05:25:37.048Z,100415.56
2022-11-06T05:28:08.478Z,100422.56
2022-11-06T05:30:37.258Z,100424.38
2022-11-06T05:33:04.189Z,100423.31
2022-11-06T05:35:31.649Z,100422.31
2022-11-06T05:38:00.373Z,100431.13
2022-11-06T05:40:27.339Z,100426.84
2022-11-06T05:42:54.643Z,100431.09
2022-11-06T05:45:21.529Z,100434.53
2022-11-06T05:47:48.503Z,100436.38
2022-11-06T05:50:18.157Z,100441.66
2022-11-06T05:52:45.228Z,100436.47
2022-11-06T05:55:15.195Z,100441.09
2022-11-06T05:57:42.784Z,100442.72
2022-11-06T06:00:11.597Z,100443.44
2022-11-06T06:02:43.191Z,100438.97
2022-11-06T06:05:10.669Z,100442.38
2022-11-06T06:07:37.665Z,100445.81
2022-11-06T06:10:05.030Z,100446.81
2022-11-06T06:12:31.917Z,100449.22
2022-11-06T06:14:58.928Z,100448.03
2022-11-06T06:17:26.292Z,100444.44
2022-11-06T06:19:53.472Z,100448.72
2022-11-06T06:22:20.285Z,100453.75
2022-11-06T06:24:47.319Z,100456.34
2022-11-06T06:27:14.321Z,100457.94
2022-11-06T06:29:41.143Z,100460.56
2022-11-06T06:32:08.033Z,100459.47
2022-11-06T06:34:34.922Z,100463.75
2022-11-06T06:37:01.852Z,100469.97
2022-11-06T06:39:28.930Z,100456.50
2022-11-06T06:41:55.989Z,100466.25
2022-11-06T10:20:10.135Z,100493.09
2022-11-06T10:22:40.387Z,100501.63
2022-11-06T10:26:02.184Z,100501.31
2022-11-06T10:29:00.768Z,100499.28
2022-11-06T10:31:39.423Z,100493.75
2022-11-06T10:34:18.787Z,100497.81
2022-11-06T10:36:53.098Z,100495.09
2022-11-06T10:39:29.141Z,100490.47
2022-11-06T10:42:03.883Z,100486.75
2022-11-06T10:44:39.894Z,100483.91
2022-11-06T10:47:12.209Z,100483.75
2022-11-06T10:49:48.613Z,100474.94
2022-11-06T10:52:29.649Z,100482.59
2022-11-06T10:55:16.121Z,100476.59
2022-11-06T10:57:52.151Z,100478.16
2022-11-06T11:00:19.765Z,100473.03
2022-11-06T11:02:58.262Z,100459.88
2022-11-06T11:05:28.116Z,100465.91
2022-11-06T11:07:55.595Z,100461.34
2022-11-06T11:10:30.477Z,100466.56
2022-11-06T11:13:07.154Z,100450.69
2022-11-06T11:15:47.031Z,100455.00
2022-11-06T11:18:18.789Z,100449.75
2022-11-06T11:20:51.371Z,100452.22
2022-11-06T11:23:25.013Z,100460.06
2022-11-06T11:25:55.026Z,100454.00
2022-11-06T11:28:28.141Z,100453.22
2022-11-06T11:31:14.101Z,100461.34
2022-11-06T11:33:50.527Z,100456.00
2022-11-06T11:36:18.530Z,100446.16
2022-11-06T11:38:47.188Z,100447.97
2022-11-06T11:41:22.157Z,100446.16
2022-11-06T11:44:14.198Z,100446.97
2022-11-06T11:46:51.958Z,100446.97
2022-11-06T11:49:31.626Z,100441.59
2022-11-06T11:52:03.013Z,100446.94
2022-11-06T11:54:35.812Z,100436.25
2022-11-06T11:57:16.833Z,100441.72
2022-11-06T12:00:06.492Z,100444.19
2022-11-06T12:02:41.464Z,100439.19
2022-11-06T12:05:14.286Z,100434.75
2022-11-06T12:07:48.009Z,100435.63
2022-11-06T12:10:27.124Z,100450.84
2022-11-06T12:12:56.361Z,100438.78
2022-11-06T12:15:40.833Z,100439.44
2022-11-06T12:18:16.904Z,100439.56
2022-11-06T12:20:55.110Z,100438.72
2022-11-06T12:23:28.560Z,100430.84
2022-11-06T12:26:20.150Z,100432.69
2022-11-06T12:28:51.575Z,100428.22
2022-11-06T12:31:33.894Z,100426.63
2022-11-06T12:34:07.507Z,100435.41
2022-11-06T12:36:41.664Z,100427.41
2022-11-06T12:39:19.881Z,100432.78
2022-11-06T12:41:50.876Z,100435.50
2022-11-06T12:44:18.115Z,100436.47
2022-11-06T12:46:59.505Z,100428.53
2022-11-06T12:50:04.521Z,100428.44
2022-11-06T12:53:11.869Z,100435.50
2022-11-06T12:55:49.946Z,100435.53
2022-11-06T12:58:55.975Z,100438.22
2022-11-06T13:01:59.324Z,100439.13
2022-11-06T13:04:33.865Z,100441.88
2022-11-06T13:07:47.455Z,100443.50
2022-11-06T13:10:37.225Z,100440.16
2022-11-06T13:13:15.115Z,100441.34
2022-11-06T13:16:10.550Z,100442.16
2022-11-06T13:18:43.287Z,100448.22
2022-11-06T13:21:14.855Z,100448.25
2022-11-06T13:23:48.241Z,100453.66
2022-11-06T13:26:18.241Z,100451.22
2022-11-06T13:28:50.157Z,100445.97
2022-11-06T13:31:20.514Z,100446.13
2022-11-06T13:33:51.899Z,100443.44
2022-11-06T13:36:20.197Z,100447.84
2022-11-06T13:38:55.869Z,100447.84
2022-11-06T13:41:27.962Z,100440.81
2022-11-06T13:44:16.107Z,100434.75
2022-11-06T13:46:54.378Z,100444.50
2022-11-06T13:49:36.285Z,100447.19
2022-11-06T13:52:09.381Z,100435.06
2022-11-06T13:55:03.738Z,100431.56
2022-11-06T13:57:45.923Z,100431.00
2022-11-06T14:00:22.050Z,100438.13
2022-11-06T14:03:15.018Z,100439.94
2022-11-06T14:05:51.408Z,100436.50
2022-11-06T14:08:24.677Z,100436.50
2022-11-06T14:10:56.936Z,100433.13
2022-11-06T14:13:35.466Z,100429.66
2022-11-06T14:16:26.873Z,100416.53
2022-11-06T14:18:58.154Z,100412.25
2022-11-06T14:21:28.713Z,100414.06
2022-11-06T14:24:27.913Z,100404.50
2022-11-06T14:26:55.199Z,100404.53
2022-11-06T14:29:27.865Z,100397.53
2022-11-06T14:32:21.791Z,100399.28
2022-11-06T14:34:48.784Z,100396.69
2022-11-06T14:37:18.684Z,100401.25
2022-11-06T14:39:51.923Z,100404.72
2022-11-06T14:42:39.749Z,100410.03
2022-11-06T14:45:15.766Z,100404.91
2022-11-06T14:47:56.782Z,100409.31
2022-11-06T14:50:34.890Z,100404.94
2022-11-06T14:53:06.264Z,100405.81
2022-11-06T14:55:47.203Z,100399.72
2022-11-06T14:58:17.466Z,100404.25
2022-11-06T15:00:47.362Z,100403.34
2022-11-06T15:03:43.276Z,100404.09
2022-11-06T15:06:19.365Z,100403.34
2022-11-06T15:08:49.082Z,100399.81
2022-11-06T15:11:35.075Z,100401.66
2022-11-06T15:14:07.803Z,100399.88
2022-11-06T15:16:43.677Z,100405.13
2022-11-06T15:19:34.140Z,100414.69
2022-11-06T15:22:14.532Z,100406.81
2022-11-06T15:24:48.390Z,100411.97
2022-11-06T15:27:33.700Z,100418.06
2022-11-06T15:30:04.219Z,100411.16
2022-11-06T15:32:38.322Z,100403.25
2022-11-06T15:35:15.777Z,100409.34
2022-11-06T15:37:58.819Z,100412.78
2022-11-06T15:40:36.058Z,100412.84
2022-11-06T15:43:09.388Z,100403.28
2022-11-06T15:45:36.358Z,100403.31
2022-11-06T15:48:17.710Z,100401.47
2022-11-06T15:50:44.572Z,100404.25
2022-11-06T15:53:14.571Z,100408.50
2022-11-06T15:55:55.144Z,100406.81
2022-11-06T15:58:24.703Z,100405.06
2022-11-06T16:00:54.078Z,100406.84
2022-11-06T16:03:23.538Z,100398.91
2022-11-06T16:05:50.975Z,100407.72
2022-11-06T16:08:20.430Z,100403.28
2022-11-06T16:10:50.895Z,100404.94
2022-11-06T16:13:20.699Z,100414.56
2022-11-06T16:16:00.651Z,100411.88
2022-11-06T16:18:33.600Z,100407.47
2022-11-06T16:21:02.266Z,100408.31
2022-11-06T16:23:48.325Z,100414.59
2022-11-06T16:26:25.236Z,100412.69
2022-11-06T16:28:54.151Z,100409.25
2022-11-06T16:31:24.356Z,100425.97
2022-11-06T16:33:59.026Z,100431.16
2022-11-06T16:36:31.263Z,100431.91
2022-11-06T16:39:17.140Z,100431.81
2022-11-06T16:42:04.282Z,100439.63
2022-11-06T16:44:39.790Z,100446.59
2022-11-06T16:47:23.296Z,100439.63
2022-11-06T16:49:53.982Z,100447.53
2022-11-06T16:52:29.981Z,100439.53
2022-11-06T16:55:02.928Z,100434.31
2022-11-06T16:57:33.974Z,100433.59
2022-11-06T17:00:23.123Z,100429.03
2022-11-06T17:02:57.595Z,100433.59
2022-11-06T17:05:29.676Z,100434.44
2022-11-06T17:08:07.351Z,100431.03
2022-11-06T17:10:38.888Z,100431.00
2022-11-06T17:13:31.309Z,100422.22
2022-11-06T17:16:01.045Z,100418.72
2022-11-06T17:18:36.734Z,100418.75
2022-11-06T17:21:06.879Z,100418.69
2022-11-06T17:23:34.066Z,100414.34
2022-11-06T17:26:14.791Z,100418.84
2022-11-06T17:28:41.693Z,100411.06
2022-11-06T17:31:13.809Z,100418.00
2022-11-06T17:33:41.844Z,100424.06
2022-11-06T17:36:19.141Z,100425.88
2022-11-06T17:38:46.648Z,100422.47
2022-11-06T17:41:29.921Z,100424.88
2022-11-06T17:44:01.430Z,100414.53
2022-11-06T17:46:32.656Z,100425.09
2022-11-06T17:49:00.378Z,100420.56
2022-11-06T17:51:46.026Z,100415.34
2022-11-06T17:54:13.347Z,100411.91
2022-11-06T17:56:40.540Z,100410.06
2022-11-06T17:59:09.666Z,100410.03
2022-11-06T18:01:36.960Z,100398.75
2022-11-06T18:04:04.482Z,100399.66
2022-11-06T18:06:31.969Z,100398.66
2022-11-06T18:09:01.751Z,100390.84
2022-11-06T18:11:29.178Z,100394.28
2022-11-06T18:13:56.631Z,100402.09
2022-11-06T18:16:27.648Z,100404.75
2022-11-06T18:18:55.456Z,100401.34
2022-11-06T18:21:22.898Z,100408.28
2022-11-06T18:23:49.797Z,100399.44
2022-11-06T18:26:17.751Z,100399.41
2022-11-06T18:28:44.773Z,100400.16
2022-11-06T18:31:12.735Z,100403.69
2022-11-06T18:33:39.717Z,100396.72
2022-11-06T18:36:08.630Z,100406.41
2022-11-06T18:38:36.216Z,100407.50
2022-11-06T18:41:10.481Z,100413.56
2022-11-06T18:43:37.605Z,100413.56
2022-11-06T18:46:07.683Z,100422.41
2022-11-06T18:48:34.917Z,100423.31
2022-11-06T18:51:34.368Z,100430.38
2022-11-06T18:54:04.950Z,100430.38
2022-11-06T18:56:32.451Z,100424.31
2022-11-06T18:59:01.900Z,100423.50
2022-11-06T19:01:29.843Z,100425.25
2022-11-06T19:03:56.919Z,100433.22
2022-11-06T19:06:23.777Z,100426.16
2022-11-06T19:08:50.979Z,100433.25
2022-11-06T19:11:19.034Z,100424.44
2022-11-06T19:13:48.307Z,100424.44
2022-11-06T19:16:18.645Z,100419.09
2022-11-06T19:18:45.553Z,100425.19
2022-11-06T19:21:13.397Z,100418.25
2022-11-06T19:23:46.487Z,100417.41
2022-11-06T19:26:32.396Z,100426.09
2022-11-06T19:29:00.379Z,100428.69
2022-11-06T19:31:31.921Z,100434.97
2022-11-06T19:34:00.410Z,100429.66
2022-11-06T19:36:28.102Z,100430.50
2022-11-06T19:38:55.185Z,100427.94
2022-11-06T19:41:22.091Z,100428.63
2022-11-06T19:43:49.010Z,100435.63
2022-11-06T19:46:23.382Z,100425.13
2022-11-06T19:48:51.760Z,100424.22
2022-11-06T19:51:18.778Z,100425.94
2022-11-06T19:53:45.826Z,100424.06
2022-11-06T19:56:16.647Z,100424.88
2022-11-06T19:58:44.146Z,100431.00
2022-11-06T20:01:13.394Z,100424.75
2022-11-06T20:03:41.189Z,100429.28
2022-11-06T20:06:08.531Z,100432.78
2022-11-06T20:08:39.658Z,100425.72
2022-11-06T20:11:13.715Z,100427.44
2022-11-06T20:13:41.845Z,100425.81
2022-11-06T20:16:14.712Z,100424.81
2022-11-06T20:18:42.283Z,100425.75
2022-11-06T20:21:11.128Z,100427.38
2022-11-06T20:23:38.776Z,100430.91
2022-11-06T20:26:06.486Z,100419.59
2022-11-06T20:28:33.986Z,100426.59
2022-11-06T20:31:10.987Z,100419.53
2022-11-06T20:33:40.231Z,100421.34
2022-11-06T20:36:13.236Z,100413.44
2022-11-06T20:38:40.875Z,100415.25
2022-11-06T20:41:07.887Z,100410.97
2022-11-06T20:43:34.682Z,100410.09
2022-11-06T20:46:02.984Z,100405.41
2022-11-06T20:48:31.622Z,100409.72
2022-11-06T20:51:07.482Z,100405.34
2022-11-06T20:53:35.253Z,100404.50
2022-11-06T20:56:05.260Z,100401.66
2022-11-06T20:58:32.714Z,100402.59
2022-11-06T21:01:04.586Z,100398.16
2022-11-06T21:03:32.203Z,100397.38
2022-11-06T21:05:59.382Z,100388.50
2022-11-06T21:08:28.066Z,100396.28
2022-11-06T21:11:06.139Z,100399.91
2022-11-06T21:13:34.459Z,100392.94
2022-11-06T21:16:04.487Z,100393.72
2022-11-06T21:18:34.332Z,100386.66
2022-11-06T21:21:06.121Z,100393.00
2022-11-06T21:23:34.429Z,100387.59
2022-11-06T21:26:09.969Z,100392.97
2022-11-06T21:28:38.024Z,100396.25
2022-11-06T21:31:07.906Z,100389.25
2022-11-06T21:33:35.067Z,100386.88
2022-11-06T21:36:12.732Z,100385.97
2022-11-06T21:38:40.031Z,100388.59
2022-11-06T21:41:08.596Z,100387.91
2022-11-06T21:43:35.922Z,100386.91
2022-11-06T21:46:04.828Z,100378.97
2022-11-06T21:48:45.860Z,100372.84
2022-11-06T21:51:20.331Z,100378.03
2022-11-06T21:54:07.155Z,100376.31
2022-11-06T21:56:34.962Z,100379.84
2022-11-06T21:59:03.684Z,100380.75
2022-11-06T22:01:31.717Z,100380.69
2022-11-06T22:03:59.664Z,100383.16
2022-11-06T22:06:28.059Z,100377.19
2022-11-06T22:08:57.188Z,100370.91
2022-11-06T22:11:28.496Z,100377.88
2022-11-06T22:13:57.876Z,100371.84
2022-11-06T22:16:28.271Z,100371.81
2022-11-06T22:18:56.056Z,100377.00
2022-11-06T22:21:25.609Z,100373.41
2022-11-06T22:23:53.273Z,100369.66
2022-11-06T22:26:24.139Z,100375.88
2022-11-06T22:28:56.716Z,100370.56
2022-11-06T22:31:24.508Z,100368.81
2022-11-06T22:33:53.971Z,100373.03
2022-11-06T22:36:21.588Z,100366.97
2022-11-06T22:38:49.071Z,100376.50
2022-11-06T22:41:19.805Z,100367.00
2022-11-06T22:43:46.729Z,100366.94
2022-11-06T22:46:19.927Z,100363.34
2022-11-06T22:48:47.555Z,100366.75
2022-11-06T22:51:17.787Z,100361.47
2022-11-06T22:53:44.763Z,100364.19
2022-11-06T22:56:14.615Z,100360.81
2022-11-06T22:58:41.818Z,100366.75
2022-11-06T23:01:10.552Z,100368.59
2022-11-06T23:03:38.009Z,100371.94
2022-11-06T23:06:07.827Z,100370.28
2022-11-06T23:08:39.721Z,100370.25
2022-11-06T23:11:12.355Z,100366.72
2022-11-06T23:13:40.024Z,100369.97
2022-11-06T23:16:46.860Z,100362.06
2022-11-06T23:19:19.537Z,100372.59
2022-11-06T23:21:46.527Z,100364.56
2022-11-06T23:24:13.440Z,100371.50
2022-11-06T23:26:43.177Z,100366.34
2022-11-06T23:29:10.085Z,100373.16
2022-11-06T23:31:37.023Z,100373.16
2022-11-06T23:34:03.984Z,100371.44
2022-11-06T23:36:30.913Z,100377.53
2022-11-06T23:38:57.792Z,100381.03
2022-11-06T23:41:43.200Z,100377.44
2022-11-06T23:44:30.342Z,100382.91
2022-11-06T23:46:58.544Z,100389.06
2022-11-06T23:49:25.983Z,100381.00
2022-11-06T23:51:52.928Z,100391.56
2022-11-06T23:54:19.770Z,100386.25
2022-11-06T23:56:46.689Z,100382.72
2022-11-06T23:59:13.605Z,100380.13
